createdAt,value
2019-03-24T00:01:06.443Z,63.20
2019-03-24T00:03:36.575Z,62.83
2019-03-24T00:06:06.377Z,58.40
2019-03-24T00:08:36.183Z,61.85
2019-03-24T00:11:06.459Z,60.33
2019-03-24T00:13:36.228Z,60.65
2019-03-24T00:16:06.131Z,71.55
2019-03-24T00:18:36.038Z,55.15
2019-03-24T00:21:05.862Z,57.38
2019-03-24T00:23:35.577Z,62.20
2019-03-24T00:26:05.562Z,57.73
2019-03-24T00:28:35.376Z,57.58
2019-03-24T00:31:05.268Z,65.15
2019-03-24T00:33:35.056Z,59.83
2019-03-24T00:36:04.966Z,72.15
2019-03-24T00:38:34.762Z,62.78
2019-03-24T00:41:04.722Z,57.65
2019-03-24T00:43:34.534Z,58.38
2019-03-24T00:46:04.449Z,63.75
2019-03-24T00:48:34.374Z,59.20
2019-03-24T00:51:04.287Z,59.15
2019-03-24T00:53:34.139Z,62.30
2019-03-24T00:56:04.066Z,61.35
2019-03-24T00:58:33.923Z,64.77
2019-03-24T01:01:03.800Z,61.35
2019-03-24T01:03:33.672Z,59.53
2019-03-24T01:06:03.612Z,64.90
2019-03-24T01:08:33.399Z,66.00
2019-03-24T01:11:03.283Z,59.13
2019-03-24T01:13:33.090Z,58.42
2019-03-24T01:16:03.084Z,60.10
2019-03-24T01:18:32.882Z,58.60
2019-03-24T01:21:02.750Z,59.63
2019-03-24T01:23:32.549Z,62.30
2019-03-24T01:26:02.355Z,65.75
2019-03-24T01:28:32.163Z,63.08
2019-03-24T01:31:01.978Z,63.75
2019-03-24T01:33:31.786Z,63.17
2019-03-24T01:36:01.610Z,61.37
2019-03-24T01:38:31.386Z,57.62
2019-03-24T01:41:01.275Z,57.27
2019-03-24T01:43:31.061Z,61.73
2019-03-24T01:46:00.906Z,62.85
2019-03-24T01:48:30.702Z,62.65
2019-03-24T01:51:00.513Z,59.95
2019-03-24T01:53:30.323Z,70.90
2019-03-24T01:56:00.143Z,59.93
2019-03-24T01:58:29.984Z,57.45
2019-03-24T02:00:59.883Z,62.55
2019-03-24T02:03:29.676Z,59.25
2019-03-24T02:05:59.491Z,58.98
2019-03-24T02:08:29.322Z,57.85
2019-03-24T02:10:59.135Z,52.45
2019-03-24T02:13:29.195Z,62.27
2019-03-24T02:16:08.837Z,62.33
2019-03-24T02:18:30.496Z,57.90
2019-03-24T02:21:00.325Z,62.50
2019-03-24T02:23:30.119Z,67.32
2019-03-24T02:26:00.038Z,58.13
2019-03-24T02:28:29.898Z,63.35
2019-03-24T02:30:59.914Z,68.12
2019-03-24T02:33:29.694Z,64.95
2019-03-24T02:35:59.576Z,64.20
2019-03-24T02:38:29.397Z,68.12
2019-03-24T02:40:59.226Z,62.67
2019-03-24T02:43:29.053Z,64.20
2019-03-24T02:45:58.951Z,62.40
2019-03-24T02:48:28.754Z,58.87
2019-03-24T02:50:58.564Z,65.28
2019-03-24T02:53:28.368Z,59.35
2019-03-24T02:55:58.159Z,64.85
2019-03-24T02:58:27.954Z,58.68
2019-03-24T03:01:00.155Z,66.55
2019-03-24T03:03:29.948Z,61.58
2019-03-24T03:05:59.739Z,65.62
2019-03-24T03:08:29.538Z,59.08
2019-03-24T03:10:59.344Z,62.23
2019-03-24T03:13:29.266Z,69.30
2019-03-24T03:15:59.162Z,67.30
2019-03-24T03:18:28.888Z,71.05
2019-03-24T03:20:58.699Z,64.00
2019-03-24T03:23:28.528Z,68.85
2019-03-24T03:25:58.399Z,72.15
2019-03-24T03:28:28.198Z,63.65
2019-03-24T03:30:58.023Z,66.07
2019-03-24T03:33:28.136Z,66.33
2019-03-24T03:35:57.952Z,62.25
2019-03-24T03:38:27.723Z,72.80
2019-03-24T03:40:57.622Z,63.75
2019-03-24T03:43:27.424Z,62.45
2019-03-24T03:45:57.250Z,66.17
2019-03-24T03:48:27.032Z,62.27
2019-03-24T03:50:56.847Z,70.17
2019-03-24T03:53:26.621Z,59.33
2019-03-24T03:55:56.452Z,60.63
2019-03-24T03:58:26.324Z,66.95
2019-03-24T04:00:56.166Z,71.70
2019-03-24T04:03:25.947Z,65.57
2019-03-24T04:05:55.833Z,62.98
2019-03-24T04:08:25.611Z,65.17
2019-03-24T04:10:55.435Z,64.30
2019-03-24T04:13:25.305Z,59.95
2019-03-24T04:15:55.112Z,62.27
2019-03-24T04:18:24.938Z,59.55
2019-03-24T04:20:54.773Z,64.70
2019-03-24T04:23:24.557Z,60.25
2019-03-24T04:25:54.398Z,63.52
2019-03-24T04:28:24.186Z,63.33
2019-03-24T04:30:53.993Z,61.33
2019-03-24T04:33:23.778Z,63.40
2019-03-24T04:35:53.621Z,66.40
2019-03-24T04:38:23.784Z,65.60
2019-03-24T04:40:53.693Z,59.88
2019-03-24T04:43:23.530Z,64.92
2019-03-24T04:45:53.423Z,65.85
2019-03-24T04:48:23.360Z,65.10
2019-03-24T04:50:53.175Z,66.35
2019-03-24T04:53:23.032Z,68.83
2019-03-24T04:55:52.850Z,59.38
2019-03-24T04:58:22.674Z,64.92
2019-03-24T05:00:54.979Z,54.85
2019-03-24T05:03:25.213Z,60.45
2019-03-24T05:05:55.598Z,58.87
2019-03-24T05:08:26.471Z,56.10
2019-03-24T05:10:56.302Z,56.68
2019-03-24T05:13:26.126Z,61.30
2019-03-24T05:15:55.967Z,59.88
2019-03-24T05:18:25.812Z,53.83
2019-03-24T05:20:55.701Z,62.20
2019-03-24T05:23:25.534Z,60.52
2019-03-24T05:25:55.385Z,55.33
2019-03-24T05:28:25.206Z,61.83
2019-03-24T05:30:55.006Z,58.70
2019-03-24T05:33:24.838Z,54.45
2019-03-24T05:35:54.639Z,60.95
2019-03-24T05:38:24.464Z,54.58
2019-03-24T05:40:54.354Z,63.92
2019-03-24T05:43:24.190Z,59.20
2019-03-24T05:45:54.000Z,56.20
2019-03-24T05:48:23.791Z,57.70
2019-03-24T05:50:53.592Z,51.75
2019-03-24T05:53:23.439Z,57.30
2019-03-24T05:55:53.317Z,48.55
2019-03-24T05:58:23.133Z,52.08
2019-03-24T06:00:53.031Z,52.40
2019-03-24T06:03:22.914Z,56.25
2019-03-24T06:05:52.738Z,53.68
2019-03-24T06:08:22.551Z,53.87
2019-03-24T06:10:52.442Z,47.58
2019-03-24T06:13:28.951Z,45.23
2019-03-24T06:22:26.693Z,41.98
2019-03-24T06:28:00.448Z,43.23
2019-03-24T06:30:30.433Z,43.13
2019-03-24T06:33:06.671Z,32.63
2019-03-24T07:43:35.901Z,23.42
2019-03-24T07:46:05.914Z,22.40
2019-03-24T07:48:38.891Z,25.60
2019-03-24T07:51:57.994Z,27.40
2019-03-24T07:54:43.578Z,28.85
2019-03-24T08:07:02.080Z,33.63
2019-03-24T08:21:33.224Z,24.92
2019-03-24T08:26:57.178Z,17.95
2019-03-24T08:30:10.166Z,25.43
2019-03-24T10:23:00.466Z,15.80
2019-03-24T10:25:30.421Z,18.17
2019-03-24T10:28:18.398Z,18.27
2019-03-24T11:59:42.879Z,21.87
2019-03-24T12:02:23.517Z,28.90
2019-03-24T12:06:14.375Z,24.47
2019-03-24T12:09:02.373Z,17.12
2019-03-24T12:11:55.564Z,23.42
2019-03-24T12:22:14.648Z,23.18
2019-03-24T12:25:14.727Z,21.45
2019-03-24T12:36:26.993Z,20.75
2019-03-24T13:35:27.534Z,22.90
2019-03-24T13:38:04.910Z,17.87
2019-03-24T13:42:00.063Z,20.97
2019-03-24T13:44:48.354Z,21.95
2019-03-24T13:47:25.304Z,16.62
2019-03-24T13:50:39.564Z,19.17
2019-03-24T13:53:16.739Z,20.95
2019-03-24T14:07:56.267Z,22.58
2019-03-24T14:10:31.097Z,22.02
2019-03-24T14:13:05.929Z,23.10
2019-03-24T14:15:36.798Z,20.95
2019-03-24T14:18:07.681Z,18.17
2019-03-24T14:20:43.637Z,22.40
2019-03-24T14:23:13.509Z,23.30
2019-03-24T14:25:45.328Z,14.93
2019-03-24T14:28:15.280Z,20.55
2019-03-24T14:30:47.109Z,17.07
2019-03-24T14:33:17.419Z,17.57
2019-03-24T14:35:47.522Z,20.30
2019-03-24T14:38:17.398Z,18.02
2019-03-24T14:40:47.508Z,17.73
2019-03-24T14:43:17.467Z,16.93
2019-03-24T14:45:47.763Z,22.62
2019-03-24T14:48:17.891Z,17.60
2019-03-24T14:50:54.501Z,16.25
2019-03-24T14:53:19.461Z,20.37
2019-03-24T14:55:49.406Z,17.48
2019-03-24T14:58:20.835Z,13.75
2019-03-24T15:00:50.894Z,18.30
2019-03-24T15:03:20.736Z,15.45
2019-03-24T15:05:50.716Z,15.72
2019-03-24T15:08:22.620Z,15.38
2019-03-24T15:10:56.570Z,14.78
2019-03-24T15:13:28.152Z,21.90
2019-03-24T15:15:58.473Z,23.27
2019-03-24T15:28:23.892Z,16.25
2019-03-24T15:31:00.338Z,19.37
2019-03-24T15:33:35.944Z,22.58
2019-03-24T15:36:13.139Z,20.85
2019-03-24T15:38:45.122Z,20.82
2019-03-24T15:41:35.279Z,16.95
2019-03-24T15:44:22.804Z,18.15
2019-03-24T15:47:00.964Z,17.85
2019-03-24T15:53:13.227Z,18.15
2019-03-24T15:59:12.660Z,20.77
2019-03-24T16:20:06.487Z,17.57
2019-03-24T16:25:46.805Z,16.40
2019-03-24T17:08:46.015Z,17.25
2019-03-24T17:24:50.823Z,27.93
2019-03-24T17:27:39.379Z,14.10
2019-03-24T17:43:28.123Z,21.48
2019-03-24T18:13:29.743Z,21.10
2019-03-24T18:15:57.999Z,24.02
2019-03-24T18:22:38.628Z,22.45
2019-03-24T18:42:28.869Z,22.48
2019-03-24T18:45:03.682Z,26.62
2019-03-24T18:56:25.775Z,30.30
2019-03-24T19:15:02.917Z,29.25
2019-03-24T19:20:14.261Z,28.47
2019-03-24T19:22:52.123Z,30.35
2019-03-24T19:26:02.523Z,33.70
2019-03-24T19:33:50.076Z,32.48
2019-03-24T19:36:22.208Z,34.98
2019-03-24T19:38:52.785Z,33.55
2019-03-24T19:41:22.685Z,29.77
2019-03-24T19:43:58.421Z,30.82
2019-03-24T19:46:30.034Z,37.45
2019-03-24T19:48:59.961Z,31.33
2019-03-24T19:51:31.040Z,37.93
2019-03-24T19:54:20.838Z,30.68
2019-03-24T20:00:08.084Z,42.40
2019-03-24T20:02:38.247Z,33.30
2019-03-24T20:05:18.870Z,29.15
2019-03-24T20:07:51.674Z,30.43
2019-03-24T20:10:24.262Z,34.48
2019-03-24T20:12:56.691Z,36.95
2019-03-24T20:19:29.627Z,36.15
2019-03-24T20:22:07.164Z,44.65
2019-03-24T20:24:48.880Z,31.68
2019-03-24T20:30:33.392Z,33.63
2019-03-24T20:36:57.478Z,27.13
2019-03-24T20:51:46.474Z,28.05
2019-03-24T21:12:38.602Z,30.23
2019-03-24T21:25:34.822Z,28.95
2019-03-24T21:31:11.808Z,33.60
2019-03-24T21:33:42.555Z,27.42
2019-03-24T21:36:13.055Z,28.83
2019-03-24T21:38:44.973Z,31.00
2019-03-24T21:41:23.861Z,28.32
2019-03-24T21:43:54.193Z,33.83
2019-03-24T21:46:31.020Z,31.27
2019-03-24T21:49:01.103Z,31.42
2019-03-24T21:51:40.667Z,40.23
2019-03-24T21:57:00.391Z,32.25
2019-03-24T22:00:07.546Z,38.40
2019-03-24T22:02:37.886Z,44.53
2019-03-24T22:05:08.397Z,34.58
2019-03-24T22:07:42.651Z,37.50
2019-03-24T22:10:14.435Z,31.07
2019-03-24T22:12:56.201Z,37.33
2019-03-24T22:15:37.471Z,32.70
2019-03-24T22:18:16.932Z,35.78
2019-03-24T22:20:49.307Z,37.85
2019-03-24T22:23:32.307Z,40.03
2019-03-24T22:26:06.615Z,38.10
2019-03-24T22:29:19.911Z,35.08
2019-03-24T22:31:51.068Z,42.58
2019-03-24T22:34:29.621Z,41.95
2019-03-24T22:37:01.020Z,48.58
2019-03-24T22:39:40.983Z,43.90
2019-03-24T22:42:27.859Z,47.27
2019-03-24T22:47:57.905Z,45.28
2019-03-24T22:50:31.756Z,50.12
2019-03-24T22:53:02.593Z,42.58
2019-03-24T22:55:56.207Z,53.48
2019-03-24T22:58:29.214Z,53.63
2019-03-24T23:01:00.995Z,50.90
2019-03-24T23:03:52.396Z,53.30
2019-03-24T23:06:32.110Z,51.13
2019-03-24T23:09:05.057Z,53.40
2019-03-24T23:11:36.410Z,48.63
2019-03-24T23:16:56.525Z,47.67
2019-03-24T23:19:30.191Z,53.17
2019-03-24T23:22:02.323Z,50.00
2019-03-24T23:25:22.552Z,49.80
2019-03-24T23:28:15.955Z,55.10
2019-03-24T23:30:45.973Z,52.15
2019-03-24T23:33:19.006Z,49.23
2019-03-24T23:35:49.955Z,51.33
2019-03-24T23:38:30.551Z,44.13
2019-03-24T23:41:00.826Z,51.45
2019-03-24T23:43:31.076Z,47.95
2019-03-24T23:46:03.896Z,51.80
2019-03-24T23:48:58.709Z,49.73
2019-03-24T23:51:30.676Z,48.85
2019-03-24T23:54:26.219Z,50.40
2019-03-24T23:56:47.309Z,49.55
2019-03-24T23:59:17.387Z,48.00
